createdAt,value
2018-03-21T00:01:23.679Z,55.20
2018-03-21T00:06:15.330Z,55.20
2018-03-21T00:11:06.313Z,55.10
2018-03-21T00:15:57.951Z,55.20
2018-03-21T00:20:48.861Z,55.70
2018-03-21T00:25:39.754Z,55.20
2018-03-21T00:30:31.409Z,55.10
2018-03-21T00:35:22.302Z,55.10
2018-03-21T00:40:14.686Z,55.20
2018-03-21T00:45:06.666Z,55.20
2018-03-21T00:49:57.554Z,55.20
2018-03-21T00:54:49.177Z,55.20
2018-03-21T00:59:40.067Z,55.20
2018-03-21T01:04:31.003Z,55.20
2018-03-21T01:09:21.895Z,55.30
2018-03-21T01:14:12.842Z,55.30
2018-03-21T01:19:03.736Z,55.20
2018-03-21T01:23:54.681Z,55.30
2018-03-21T01:28:45.579Z,55.30
2018-03-21T01:33:37.205Z,55.50
2018-03-21T01:38:28.098Z,55.20
2018-03-21T01:43:18.995Z,55.20
2018-03-21T01:48:10.622Z,55.10
2018-03-21T01:53:09.675Z,55.20
2018-03-21T01:58:00.632Z,55.10
2018-03-21T02:02:51.569Z,55.30
2018-03-21T02:07:42.484Z,55.30
2018-03-21T02:12:33.417Z,55.20
2018-03-21T02:17:24.392Z,55.20
2018-03-21T02:22:15.295Z,55.20
2018-03-21T02:27:06.214Z,55.20
2018-03-21T02:31:57.116Z,55.20
2018-03-21T02:36:48.019Z,55.20
2018-03-21T02:41:39.692Z,55.20
2018-03-21T02:46:30.638Z,55.20
2018-03-21T02:51:21.708Z,55.20
2018-03-21T02:56:12.804Z,55.20
2018-03-21T03:01:03.888Z,55.10
2018-03-21T03:05:55.532Z,55.40
2018-03-21T03:10:47.207Z,55.20
2018-03-21T03:15:38.856Z,55.30
2018-03-21T03:20:29.850Z,55.10
2018-03-21T03:25:20.743Z,55.20
2018-03-21T03:30:11.643Z,55.30
2018-03-21T03:40:20.351Z,55.10
2018-03-21T03:45:11.260Z,55.50
2018-03-21T03:50:02.166Z,55.30
2018-03-21T03:54:53.810Z,55.30
2018-03-21T03:59:45.463Z,55.30
2018-03-21T04:04:37.110Z,55.20
2018-03-21T04:09:28.753Z,55.30
2018-03-21T04:14:20.414Z,55.30
2018-03-21T04:19:11.325Z,55.30
2018-03-21T04:24:02.963Z,55.40
2018-03-21T04:28:54.610Z,55.40
2018-03-21T04:33:46.254Z,55.20
2018-03-21T04:38:37.903Z,55.30
2018-03-21T04:43:29.559Z,55.30
2018-03-21T04:48:20.462Z,55.20
2018-03-21T04:53:11.359Z,55.30
2018-03-21T04:58:02.278Z,55.40
2018-03-21T05:02:53.190Z,55.30
2018-03-21T05:07:44.083Z,55.40
2018-03-21T05:12:35.730Z,55.30
2018-03-21T05:17:27.375Z,55.40
2018-03-21T05:22:18.275Z,55.40
2018-03-21T05:27:09.200Z,55.40
2018-03-21T05:32:00.103Z,55.50
2018-03-21T05:36:51.003Z,55.50
2018-03-21T05:41:42.668Z,55.50
2018-03-21T05:46:34.313Z,55.60
2018-03-21T05:51:25.223Z,55.50
2018-03-21T05:56:16.900Z,55.80
2018-03-21T06:01:07.838Z,55.50
2018-03-21T06:05:58.758Z,55.50
2018-03-21T06:10:49.699Z,55.50
2018-03-21T06:15:40.610Z,55.70
2018-03-21T06:20:31.519Z,55.70
2018-03-21T06:25:23.163Z,56.60
2018-03-21T06:30:14.811Z,58.00
2018-03-21T06:35:07.280Z,58.30
2018-03-21T06:39:58.181Z,58.30
2018-03-21T06:44:49.091Z,59.70
2018-03-21T06:49:40.004Z,59.40
2018-03-21T06:54:33.266Z,59.00
2018-03-21T06:59:24.268Z,58.20
2018-03-21T07:04:15.171Z,58.20
2018-03-21T07:09:06.547Z,58.50
2018-03-21T07:14:10.862Z,59.10
2018-03-21T07:19:01.813Z,59.00
2018-03-21T07:23:52.882Z,58.90
2018-03-21T07:28:43.780Z,58.60
2018-03-21T07:33:35.474Z,58.30
2018-03-21T07:38:26.427Z,58.30
2018-03-21T07:43:18.071Z,58.80
2018-03-21T07:48:08.988Z,58.70
2018-03-21T07:52:59.892Z,58.80
2018-03-21T07:57:50.824Z,60.00
2018-03-21T08:02:42.599Z,59.60
2018-03-21T08:07:34.255Z,59.30
2018-03-21T08:12:25.172Z,59.30
2018-03-21T08:17:16.823Z,59.80
2018-03-21T08:22:08.500Z,59.80
2018-03-21T08:26:59.572Z,59.70
2018-03-21T08:31:50.723Z,59.80
2018-03-21T08:36:42.373Z,60.30
2018-03-21T08:41:33.270Z,60.20
2018-03-21T08:46:24.174Z,60.60
2018-03-21T08:51:15.156Z,61.00
2018-03-21T08:56:06.066Z,61.30
2018-03-21T09:00:56.963Z,61.50
2018-03-21T09:05:48.740Z,61.10
2018-03-21T09:10:39.684Z,61.10
2018-03-21T09:15:30.594Z,60.90
2018-03-21T09:20:21.483Z,61.00
2018-03-21T09:25:12.374Z,60.80
2018-03-21T09:30:03.267Z,60.60
2018-03-21T09:34:54.180Z,60.50
2018-03-21T09:39:45.830Z,60.30
2018-03-21T09:44:37.479Z,60.10
2018-03-21T09:49:28.385Z,60.10
2018-03-21T09:54:19.316Z,60.00
2018-03-21T09:59:10.970Z,60.40
2018-03-21T10:04:02.590Z,59.30
2018-03-21T10:08:53.582Z,59.50
2018-03-21T10:13:44.477Z,59.40
2018-03-21T10:18:35.379Z,59.20
2018-03-21T10:23:26.292Z,59.20
2018-03-21T10:28:17.194Z,59.10
2018-03-21T10:33:08.862Z,58.90
2018-03-21T10:38:00.938Z,58.70
2018-03-21T10:42:51.839Z,58.70
2018-03-21T10:47:42.747Z,58.30
2018-03-21T10:52:38.914Z,58.30
2018-03-21T10:57:25.392Z,57.60
2018-03-21T11:02:16.402Z,57.70
2018-03-21T11:07:07.312Z,57.50
2018-03-21T11:11:58.275Z,57.50
2018-03-21T11:16:49.876Z,57.20
2018-03-21T11:21:41.505Z,57.20
2018-03-21T11:26:33.151Z,56.90
2018-03-21T11:31:24.790Z,56.20
2018-03-21T11:36:16.424Z,56.20
2018-03-21T11:41:07.325Z,56.10
2018-03-21T11:45:58.218Z,55.50
2018-03-21T11:50:49.120Z,54.20
2018-03-21T11:55:40.027Z,53.60
2018-03-21T12:00:31.662Z,51.70
2018-03-21T12:05:23.294Z,53.20
2018-03-21T12:10:14.192Z,52.50
2018-03-21T12:15:05.119Z,51.30
2018-03-21T12:19:56.011Z,50.80
2018-03-21T12:24:46.902Z,50.40
2018-03-21T12:29:37.799Z,50.20
2018-03-21T12:34:28.695Z,50.40
2018-03-21T12:39:19.594Z,50.30
2018-03-21T12:44:11.248Z,48.10
2018-03-21T12:49:02.900Z,48.30
2018-03-21T12:53:54.543Z,48.60
2018-03-21T12:58:46.187Z,48.30
2018-03-21T13:03:37.827Z,49.30
2018-03-21T13:08:29.479Z,48.70
2018-03-21T13:13:21.131Z,48.50
2018-03-21T13:18:12.762Z,48.80
2018-03-21T13:23:03.768Z,48.70
2018-03-21T13:27:54.675Z,48.90
2018-03-21T13:32:45.588Z,48.30
2018-03-21T13:37:36.490Z,48.30
2018-03-21T13:42:28.131Z,48.60
2018-03-21T13:47:19.771Z,48.50
2018-03-21T13:52:12.495Z,49.10
2018-03-21T13:57:03.391Z,49.10
2018-03-21T14:01:54.370Z,48.60
2018-03-21T14:06:46.095Z,48.70
2018-03-21T14:11:37.000Z,48.60
2018-03-21T14:16:27.918Z,48.70
2018-03-21T14:21:18.818Z,48.80
2018-03-21T14:26:10.531Z,49.10
2018-03-21T14:31:01.448Z,49.00
2018-03-21T14:35:52.451Z,48.60
2018-03-21T14:40:43.350Z,47.80
2018-03-21T14:45:34.235Z,47.80
2018-03-21T14:50:25.124Z,47.20
2018-03-21T14:55:16.087Z,47.90
2018-03-21T15:00:06.978Z,48.20
2018-03-21T15:04:58.648Z,48.30
2018-03-21T15:09:49.552Z,48.20
2018-03-21T15:14:41.220Z,48.30
2018-03-21T15:19:32.247Z,48.30
2018-03-21T15:24:23.925Z,47.70
2018-03-21T15:29:14.848Z,47.60
2018-03-21T15:34:06.502Z,48.10
2018-03-21T15:38:57.394Z,48.00
2018-03-21T15:43:49.048Z,48.50
2018-03-21T15:48:40.692Z,48.40
2018-03-21T15:53:31.593Z,48.40
2018-03-21T15:58:22.509Z,48.70
2018-03-21T16:03:13.400Z,48.90
2018-03-21T16:08:05.055Z,49.00
2018-03-21T16:12:56.708Z,49.00
2018-03-21T16:17:47.629Z,48.90
2018-03-21T16:22:38.527Z,49.10
2018-03-21T16:27:29.430Z,49.20
2018-03-21T16:32:20.348Z,49.20
2018-03-21T16:37:11.246Z,49.70
2018-03-21T16:42:02.163Z,49.90
2018-03-21T16:46:53.808Z,51.40
2018-03-21T16:51:45.434Z,51.60
2018-03-21T16:56:37.075Z,51.60
2018-03-21T17:01:27.971Z,51.50
2018-03-21T17:06:18.854Z,51.40
2018-03-21T17:11:09.763Z,51.90
2018-03-21T17:16:01.412Z,52.50
2018-03-21T17:20:53.073Z,52.90
2018-03-21T17:25:43.980Z,52.80
2018-03-21T17:30:34.879Z,52.70
2018-03-21T17:35:25.781Z,53.20
2018-03-21T17:40:16.679Z,53.00
2018-03-21T17:45:08.385Z,53.50
2018-03-21T17:49:59.283Z,53.00
2018-03-21T17:54:50.194Z,52.70
2018-03-21T17:59:41.827Z,52.70
2018-03-21T18:04:33.467Z,52.90
2018-03-21T18:09:24.458Z,52.80
2018-03-21T18:14:15.369Z,53.40
2018-03-21T18:19:06.266Z,52.90
2018-03-21T18:23:57.920Z,53.00
2018-03-21T18:28:49.611Z,53.10
2018-03-21T18:33:40.524Z,53.70
2018-03-21T18:38:31.431Z,53.10
2018-03-21T18:43:22.370Z,53.20
2018-03-21T18:48:13.988Z,53.20
2018-03-21T18:53:05.639Z,53.00
2018-03-21T18:57:56.612Z,53.00
2018-03-21T19:02:47.507Z,53.20
2018-03-21T19:07:38.411Z,53.40
2018-03-21T19:12:30.057Z,53.30
2018-03-21T19:17:21.703Z,53.50
2018-03-21T19:22:13.349Z,53.60
2018-03-21T19:27:04.991Z,53.60
2018-03-21T19:31:56.652Z,53.70
2018-03-21T19:36:47.554Z,53.70
2018-03-21T19:41:38.446Z,53.70
2018-03-21T19:46:29.343Z,53.80
2018-03-21T19:51:20.238Z,53.80
2018-03-21T19:56:11.154Z,53.80
2018-03-21T20:01:02.051Z,53.80
2018-03-21T20:05:52.987Z,53.90
2018-03-21T20:10:43.891Z,54.00
2018-03-21T20:15:34.795Z,54.10
2018-03-21T20:20:26.430Z,54.20
2018-03-21T20:25:17.332Z,54.20
2018-03-21T20:30:08.244Z,54.20
2018-03-21T20:34:59.133Z,54.90
2018-03-21T20:39:50.833Z,54.30
2018-03-21T20:44:41.740Z,54.20
2018-03-21T20:49:32.649Z,54.40
2018-03-21T20:54:23.625Z,54.50
2018-03-21T20:59:14.531Z,54.30
2018-03-21T21:04:05.428Z,54.50
2018-03-21T21:08:57.069Z,54.80
2018-03-21T21:13:47.975Z,54.80
2018-03-21T21:18:38.874Z,54.70
2018-03-21T21:23:29.883Z,55.40
2018-03-21T21:28:20.814Z,54.80
2018-03-21T21:33:11.712Z,54.70
2018-03-21T21:38:02.671Z,54.80
2018-03-21T21:42:53.596Z,54.90
2018-03-21T21:47:44.490Z,54.90
2018-03-21T21:52:35.391Z,54.90
2018-03-21T21:57:27.074Z,55.20
2018-03-21T22:02:17.974Z,55.10
2018-03-21T22:07:08.912Z,55.20
2018-03-21T22:11:59.817Z,55.20
2018-03-21T22:16:50.727Z,55.20
2018-03-21T22:21:42.374Z,55.20
2018-03-21T22:26:34.025Z,55.10
2018-03-21T22:31:25.689Z,55.20
2018-03-21T22:36:16.646Z,55.10
2018-03-21T22:41:07.588Z,55.20
2018-03-21T22:45:58.523Z,55.20
2018-03-21T22:50:49.439Z,55.30
2018-03-21T22:55:40.366Z,55.20
2018-03-21T23:00:31.258Z,55.40
2018-03-21T23:05:22.219Z,55.40
2018-03-21T23:10:13.156Z,55.30
2018-03-21T23:15:04.180Z,55.40
2018-03-21T23:19:55.083Z,55.60
2018-03-21T23:24:46.051Z,55.60
2018-03-21T23:29:36.963Z,55.80
2018-03-21T23:34:27.945Z,55.80
2018-03-21T23:39:19.266Z,56.00
2018-03-21T23:44:10.974Z,56.10
2018-03-21T23:49:01.906Z,56.10
2018-03-21T23:53:52.798Z,56.20
2018-03-21T23:58:43.759Z,56.40
